Time;durP1;ratioP1;P1;durP2;ratioP2;P2;SDS_P1;SDS_P2;PMS_P1;PMS_P2;Temp;Humidity;BMP_temperature;BMP_pressure;BME280_temperature;BME280_humidity;BME280_pressure;Samples;Min_cycle;Max_cycle;Signal;HPM_P1;HPM_P2
2023/08/05 14:42:21;;;;;;;9.30;7.60;;;;;;;44.35;25.82;100552.43;109210;1253;66292;-91
2023/08/05 14:45:09;;;;;;;9.70;7.80;;;;;;;43.63;26.66;100553.54;109207;1252;60182;-91
2023/08/05 14:47:57;;;;;;;13.50;8.40;;;;;;;43.23;27.58;100545.78;109149;1254;65081;-87
2023/08/05 14:50:45;;;;;;;12.20;9.20;;;;;;;42.99;27.80;100544.96;109222;1253;58660;-92
2023/08/05 14:53:33;;;;;;;12.20;8.50;;;;;;;42.60;28.12;100541.61;109100;1253;58130;-91
2023/08/05 14:56:20;;;;;;;12.20;9.10;;;;;;;42.40;29.06;100543.30;109230;1253;65107;-91
2023/08/05 14:59:08;;;;;;;11.80;8.90;;;;;;;42.22;29.56;100545.77;109073;1252;59760;-91
2023/08/05 15:01:56;;;;;;;10.90;8.50;;;;;;;41.83;29.42;100538.32;109107;1254;62892;-87
2023/08/05 15:04:43;;;;;;;16.00;10.40;;;;;;;41.60;29.84;100536.80;109015;1253;58283;-87
2023/08/05 15:07:32;;;;;;;10.40;7.80;;;;;;;41.34;30.38;100535.29;109242;1253;58324;-91
2023/08/05 15:10:20;;;;;;;10.00;8.40;;;;;;;41.11;30.77;100533.51;108990;1253;64825;-87
2023/08/05 15:13:08;;;;;;;10.30;8.20;;;;;;;40.80;31.35;100534.48;109194;1253;58853;-87
2023/08/05 15:15:58;;;;;;;9.70;8.30;;;;;;;40.64;31.80;100535.91;109078;1253;64006;-86
2023/08/05 15:18:46;;;;;;;17.40;11.20;;;;;;;40.53;31.96;100529.59;109221;1252;58781;-86
2023/08/05 15:21:34;;;;;;;12.60;8.50;;;;;;;40.47;32.29;100525.69;109214;1252;58392;-90
2023/08/05 15:24:22;;;;;;;12.70;8.00;;;;;;;40.30;32.77;100524.54;109206;1253;65067;-86
2023/08/05 15:27:10;;;;;;;13.00;8.70;;;;;;;40.22;33.10;100519.52;109260;1252;61072;-89
2023/08/05 15:29:58;;;;;;;13.00;8.80;;;;;;;40.11;33.27;100520.96;109064;1253;65210;-90
2023/08/05 15:32:46;;;;;;;11.80;8.60;;;;;;;40.02;33.44;100518.36;109033;1254;58280;-86
2023/08/05 15:35:33;;;;;;;15.30;10.10;;;;;;;39.92;33.93;100518.05;109225;1252;58291;-90
2023/08/05 15:38:22;;;;;;;23.10;12.70;;;;;;;39.84;34.22;100517.02;109144;1252;65038;-90
2023/08/05 15:41:09;;;;;;;14.70;10.00;;;;;;;39.84;34.32;100515.15;109181;1253;59809;-87
2023/08/05 15:43:57;;;;;;;13.60;8.90;;;;;;;39.76;34.72;100514.17;109197;1253;64087;-91
2023/08/05 15:46:45;;;;;;;12.50;9.20;;;;;;;39.66;34.99;100516.04;109110;1252;58661;-87
2023/08/05 15:49:33;;;;;;;13.40;8.70;;;;;;;39.48;35.28;100513.05;109187;1252;58860;-91
2023/08/05 15:52:20;;;;;;;10.60;8.90;;;;;;;39.43;35.63;100512.71;109074;1254;64923;-87
2023/08/05 15:55:09;;;;;;;19.50;14.30;;;;;;;39.38;35.78;100511.03;109232;1254;61074;-87
2023/08/05 15:57:57;;;;;;;23.20;15.40;;;;;;;39.32;35.90;100507.44;109153;1252;62558;-91
2023/08/05 16:00:44;;;;;;;14.70;10.00;;;;;;;39.26;36.06;100507.98;109225;1254;58282;-88
2023/08/05 16:03:35;;;;;;;12.50;9.50;;;;;;;39.16;36.34;100507.65;109276;1252;58896;-90
2023/08/05 16:06:23;;;;;;;10.50;8.80;;;;;;;39.20;36.72;100507.66;109073;1253;65087;-88
2023/08/05 16:09:10;;;;;;;14.70;9.20;;;;;;;39.19;36.70;100506.55;109059;1252;61010;-91
2023/08/05 16:11:59;;;;;;;13.70;9.30;;;;;;;39.22;36.86;100498.73;109252;1253;65084;-86
2023/08/05 16:14:52;;;;;;;14.00;11.10;;;;;;;39.07;37.08;100497.79;109239;1253;58451;-87
2023/08/05 16:17:40;;;;;;;20.50;16.40;;;;;;;38.86;37.62;100497.53;108966;1252;58247;-87
2023/08/05 16:20:28;;;;;;;21.20;16.80;;;;;;;38.61;38.43;100497.46;109212;1254;66619;-86
2023/08/05 16:23:16;;;;;;;16.40;12.20;;;;;;;38.53;38.86;100494.21;109217;1253;58853;-91
2023/08/05 16:26:11;;;;;;;18.50;10.50;;;;;;;38.44;39.12;100489.77;109150;1254;63743;-91
2023/08/05 16:28:59;;;;;;;18.10;12.50;;;;;;;38.38;39.83;100489.74;109048;1256;58813;-87
2023/08/05 16:31:47;;;;;;;25.60;16.60;;;;;;;38.42;39.94;100489.54;109170;1254;58256;-90
2023/08/05 16:34:35;;;;;;;32.40;19.30;;;;;;;38.44;40.11;100484.46;109166;1253;66043;-87
2023/08/05 16:37:23;;;;;;;32.00;18.80;;;;;;;38.29;40.69;100480.83;109170;1254;59869;-91
2023/08/05 16:40:11;;;;;;;46.20;24.00;;;;;;;38.22;41.38;100478.03;109192;1253;63993;-91
2023/08/05 16:42:58;;;;;;;69.50;33.90;;;;;;;38.17;41.58;100477.35;109224;1252;58783;-91
2023/08/05 16:45:46;;;;;;;89.50;45.20;;;;;;;38.18;41.92;100475.04;109192;1254;58269;-91
2023/08/05 16:48:34;;;;;;;54.20;31.10;;;;;;;38.11;42.37;100471.09;109070;1253;66914;-91
2023/08/05 16:51:22;;;;;;;34.90;20.80;;;;;;;37.91;43.10;100467.45;109046;1253;58869;-87
2023/08/05 16:54:10;;;;;;;23.00;15.70;;;;;;;37.90;43.43;100466.02;109288;1253;64909;-91
2023/08/05 16:56:57;;;;;;;18.80;12.20;;;;;;;37.90;43.51;100465.36;109049;1252;59024;-87
2023/08/05 16:59:46;;;;;;;14.70;11.00;;;;;;;37.71;44.11;100468.05;109081;1253;58414;-91
2023/08/05 17:02:34;;;;;;;14.40;10.20;;;;;;;37.61;44.63;100471.49;109052;1253;66393;-91
2023/08/05 17:05:22;;;;;;;14.40;9.90;;;;;;;37.54;45.16;100471.66;109029;1254;61030;-90
2023/08/05 17:08:09;;;;;;;12.70;9.40;;;;;;;37.45;45.90;100463.16;109094;1253;62729;-88
2023/08/05 17:10:57;;;;;;;13.40;9.80;;;;;;;37.15;47.39;100459.27;109215;1253;58741;-91
2023/08/05 17:13:45;;;;;;;15.00;9.70;;;;;;;37.01;48.53;100456.00;109222;1252;58321;-87
2023/08/05 17:16:33;;;;;;;11.50;9.20;;;;;;;36.84;49.65;100455.56;109207;1253;67050;-88
2023/08/05 17:19:21;;;;;;;13.60;9.80;;;;;;;36.74;50.53;100452.81;108932;1253;60798;-88
2023/08/05 17:22:09;;;;;;;13.70;9.60;;;;;;;36.69;51.28;100453.38;109211;1253;64035;-87
2023/08/05 17:24:57;;;;;;;14.00;9.60;;;;;;;36.66;51.82;100449.77;109162;1254;58250;-87
2023/08/05 17:27:45;;;;;;;12.40;9.90;;;;;;;36.54;52.48;100453.02;109167;1253;58839;-87
2023/08/05 17:30:34;;;;;;;14.30;10.60;;;;;;;36.35;53.95;100452.81;109205;1254;64117;-88
2023/08/05 17:33:22;;;;;;;13.80;10.00;;;;;;;36.32;54.97;100452.09;109079;1254;63480;-87
2023/08/05 17:36:10;;;;;;;14.70;9.40;;;;;;;36.25;56.10;100452.02;109236;1253;65002;-87
2023/08/05 17:38:57;;;;;;;12.30;9.60;;;;;;;36.11;57.46;100453.83;109155;1253;58696;-88
2023/08/05 17:41:45;;;;;;;15.80;10.20;;;;;;;36.13;57.81;100460.02;109172;1252;58291;-91
2023/08/05 17:44:33;;;;;;;14.00;10.10;;;;;;;36.16;57.84;100455.95;109038;1252;66088;-91
2023/08/05 17:47:21;;;;;;;14.30;10.30;;;;;;;36.03;59.46;100455.46;109097;1253;60841;-91
2023/08/05 17:50:09;;;;;;;19.00;12.20;;;;;;;35.95;60.41;100455.30;109160;1253;62766;-91
2023/08/05 17:52:57;;;;;;;18.50;13.20;;;;;;;35.75;61.60;100457.55;109215;1254;58699;-91
2023/08/05 17:55:48;;;;;;;15.70;11.50;;;;;;;35.65;62.38;100460.14;109151;1253;58271;-87
2023/08/05 17:58:36;;;;;;;43.70;24.90;;;;;;;35.54;63.06;100460.79;109136;1253;66273;-87
2023/08/05 18:01:24;;;;;;;30.20;19.50;;;;;;;35.33;64.55;100460.07;109227;1253;60593;-87
2023/08/05 18:04:14;;;;;;;18.80;13.00;;;;;;;35.23;65.40;100453.64;109295;1252;65160;-88
2023/08/05 18:07:05;;;;;;;15.70;11.20;;;;;;;35.07;66.55;100454.21;109204;1253;58720;-91
2023/08/05 18:09:53;;;;;;;14.60;10.60;;;;;;;34.88;67.86;100455.38;109068;1254;58331;-92
2023/08/05 18:12:41;;;;;;;16.60;11.40;;;;;;;34.77;69.12;100458.27;109256;1252;65430;-86
2023/08/05 18:15:29;;;;;;;18.90;13.20;;;;;;;34.73;69.82;100463.41;109053;1254;60386;-87
2023/08/05 18:18:17;;;;;;;23.30;13.90;;;;;;;34.47;71.83;100459.52;108773;1254;64218;-91
2023/08/05 18:21:05;;;;;;;18.20;13.50;;;;;;;34.31;73.21;100458.95;109045;1254;58285;-91
2023/08/05 18:23:54;;;;;;;29.50;19.90;;;;;;;34.21;74.12;100461.53;109061;1254;58366;-88
2023/08/05 18:26:42;;;;;;;30.60;20.00;;;;;;;34.13;74.89;100462.86;109208;1253;66124;-91
2023/08/05 18:29:30;;;;;;;30.70;19.90;;;;;;;34.11;75.50;100455.06;109219;1253;62184;-91
2023/08/05 18:32:18;;;;;;;21.90;14.50;;;;;;;34.31;74.24;100453.19;109156;1254;64365;-87
2023/08/05 18:35:08;;;;;;;24.20;15.60;;;;;;;34.39;73.39;100456.58;109166;1253;58940;-91
2023/08/05 18:37:57;;;;;;;22.20;16.10;;;;;;;34.26;74.21;100454.93;109274;1253;58645;-87
2023/08/05 18:40:45;;;;;;;24.10;15.40;;;;;;;34.17;75.07;100453.86;109251;1254;65216;-91
2023/08/05 18:43:33;;;;;;;22.00;13.40;;;;;;;34.17;74.99;100452.98;109195;1254;61059;-91
2023/08/05 18:46:21;;;;;;;20.00;13.00;;;;;;;34.05;75.88;100448.37;109057;1254;64818;-91
2023/08/05 18:49:09;;;;;;;17.40;11.20;;;;;;;34.01;76.41;100447.00;109215;1254;58782;-87
2023/08/05 18:51:57;;;;;;;15.00;10.10;;;;;;;34.00;76.22;100443.63;109272;1254;58377;-91
2023/08/05 18:54:45;;;;;;;15.30;10.50;;;;;;;33.94;75.82;100440.45;109236;1253;66332;-91
2023/08/05 18:57:33;;;;;;;13.70;9.70;;;;;;;33.93;74.91;100442.50;109036;1254;60969;-87
2023/08/05 19:00:23;;;;;;;14.70;9.60;;;;;;;33.93;73.84;100444.99;109165;1252;66247;-88
2023/08/05 19:03:11;;;;;;;13.10;8.90;;;;;;;33.98;72.86;100440.94;109243;1254;58346;-88
2023/08/05 19:05:59;;;;;;;12.50;8.60;;;;;;;33.84;72.97;100438.01;109241;1254;58453;-91
2023/08/05 19:08:47;;;;;;;15.30;8.70;;;;;;;33.85;72.66;100440.41;109019;1256;66030;-86
2023/08/05 19:11:35;;;;;;;12.20;8.40;;;;;;;33.84;72.47;100446.58;109214;1253;59081;-91
2023/08/05 19:14:25;;;;;;;10.80;8.20;;;;;;;33.78;72.56;100447.91;109093;1254;64860;-91
2023/08/05 19:17:13;;;;;;;11.80;8.00;;;;;;;33.72;73.16;100450.00;109098;1254;58188;-87
2023/08/05 19:20:02;;;;;;;11.90;8.70;;;;;;;33.69;73.94;100447.66;109205;1254;58365;-87
2023/08/05 19:22:50;;;;;;;11.80;8.20;;;;;;;33.74;73.48;100445.84;109064;1253;65267;-91
2023/08/05 19:25:38;;;;;;;11.90;8.20;;;;;;;33.73;73.74;100444.55;109055;1253;61843;-87
2023/08/05 19:28:25;;;;;;;13.90;8.20;;;;;;;33.89;72.79;100440.15;109178;1253;64289;-90
2023/08/05 19:31:13;;;;;;;12.10;7.60;;;;;;;33.92;72.15;100440.17;109176;1256;58329;-91
2023/08/05 19:34:01;;;;;;;14.60;8.10;;;;;;;33.88;72.98;100440.41;109147;1254;60383;-87
2023/08/05 19:36:49;;;;;;;13.50;9.00;;;;;;;33.86;74.74;100439.32;109238;1254;65196;-90
2023/08/05 19:39:37;;;;;;;11.10;7.80;;;;;;;33.84;76.12;100435.58;109096;1253;61584;-89
2023/08/05 19:42:26;;;;;;;11.10;8.10;;;;;;;33.83;77.14;100439.89;108985;1254;63912;-91
2023/08/05 19:45:13;;;;;;;11.10;7.20;;;;;;;33.85;77.36;100439.77;109051;1253;58924;-91
2023/08/05 19:48:02;;;;;;;9.80;7.70;;;;;;;33.85;77.92;100441.23;109158;1254;61062;-90
2023/08/05 19:50:50;;;;;;;13.50;7.80;;;;;;;33.74;77.59;100437.59;109008;1254;65163;-91
2023/08/05 19:53:54;;;;;;;12.50;8.20;;;;;;;33.68;77.82;100438.11;109240;1254;58693;-90
2023/08/05 19:56:43;;;;;;;10.60;6.90;;;;;;;33.70;78.04;100439.06;108996;1253;64908;-91
2023/08/05 19:59:31;;;;;;;11.40;7.40;;;;;;;33.67;78.75;100439.45;108884;1254;60124;-90
2023/08/05 20:02:19;;;;;;;12.10;8.40;;;;;;;33.69;79.89;100440.86;109132;1253;58613;-88
2023/08/05 20:05:07;;;;;;;13.20;7.30;;;;;;;33.72;80.66;100438.67;108948;1253;66110;-92
2023/08/05 20:07:55;;;;;;;13.60;7.60;;;;;;;33.68;81.93;100436.75;108945;1253;61303;-88
2023/08/05 20:10:45;;;;;;;12.20;8.10;;;;;;;33.68;83.15;100439.67;109073;1252;63906;-91
2023/08/05 20:13:33;;;;;;;10.90;7.70;;;;;;;33.72;83.84;100435.27;109148;1254;58728;-87
2023/08/05 20:16:21;;;;;;;11.10;7.50;;;;;;;33.70;84.79;100432.58;109035;1253;58399;-88
2023/08/05 20:19:09;;;;;;;11.80;7.70;;;;;;;33.78;85.54;100429.79;109163;1256;65211;-90
2023/08/05 20:21:57;;;;;;;15.10;8.20;;;;;;;33.77;86.31;100427.08;109011;1253;61116;-87
2023/08/05 20:24:45;;;;;;;11.30;8.10;;;;;;;33.87;86.27;100426.36;109194;1254;63836;-89
2023/08/05 20:27:33;;;;;;;12.10;8.10;;;;;;;33.97;85.90;100424.75;109180;1253;59060;-88
2023/08/05 20:30:21;;;;;;;18.30;8.50;;;;;;;33.99;86.04;100425.66;109074;1254;58316;-88
2023/08/05 20:33:09;;;;;;;11.70;7.80;;;;;;;34.00;86.11;100424.77;108965;1253;66356;-90
2023/08/05 20:35:58;;;;;;;14.90;8.30;;;;;;;33.95;86.74;100423.59;108970;1256;59795;-88
2023/08/05 20:38:46;;;;;;;14.70;8.50;;;;;;;34.06;86.23;100424.61;109053;1254;65069;-88
2023/08/05 20:41:34;;;;;;;13.10;8.50;;;;;;;34.10;86.33;100420.23;109152;1254;58363;-90
2023/08/05 20:44:22;;;;;;;11.30;9.10;;;;;;;34.02;87.65;100416.05;109050;1253;58161;-91
2023/08/05 20:47:12;;;;;;;12.30;8.90;;;;;;;34.06;88.13;100414.34;109119;1256;66583;-91
2023/08/05 20:50:00;;;;;;;13.70;9.20;;;;;;;34.09;89.24;100416.61;109072;1254;60154;-91
2023/08/05 20:52:48;;;;;;;13.00;8.50;;;;;;;34.13;89.80;100417.17;108983;1254;64929;-88
2023/08/05 20:55:36;;;;;;;11.80;8.50;;;;;;;34.31;88.98;100415.11;109184;1254;60449;-87
2023/08/05 20:58:24;;;;;;;16.40;8.90;;;;;;;34.31;89.08;100416.34;109212;1254;58928;-90
2023/08/05 21:01:12;;;;;;;11.30;9.20;;;;;;;34.27;89.62;100417.24;109061;1257;66243;-89
2023/08/05 21:04:00;;;;;;;12.50;8.20;;;;;;;34.18;90.20;100416.83;109042;1253;60839;-90
2023/08/05 21:06:48;;;;;;;10.40;8.40;;;;;;;34.13;90.49;100414.10;109195;1254;63818;-88
2023/08/05 21:09:36;;;;;;;14.40;8.90;;;;;;;34.13;90.87;100413.88;109238;1253;58621;-90
2023/08/05 21:12:24;;;;;;;13.80;9.60;;;;;;;34.03;91.22;100409.21;109084;1253;58332;-88
2023/08/05 21:15:12;;;;;;;10.90;8.90;;;;;;;34.10;91.17;100412.64;109225;1254;64021;-92
2023/08/05 21:17:59;;;;;;;14.30;8.50;;;;;;;34.14;90.68;100415.86;109049;1254;60877;-90
2023/08/05 21:20:48;;;;;;;14.40;8.60;;;;;;;34.17;90.43;100413.12;109148;1253;65031;-88
2023/08/05 21:23:35;;;;;;;13.00;8.70;;;;;;;34.19;90.39;100406.90;109220;1254;58530;-89
2023/08/05 21:26:23;;;;;;;13.70;9.60;;;;;;;34.14;90.97;100401.85;109083;1253;58845;-92
2023/08/05 21:29:13;;;;;;;15.90;9.10;;;;;;;34.13;91.16;100397.42;108984;1253;66257;-90
2023/08/05 21:32:01;;;;;;;12.50;9.10;;;;;;;34.16;90.77;100393.63;109224;1253;60922;-90
2023/08/05 21:34:50;;;;;;;12.90;9.20;;;;;;;34.12;90.87;100389.27;109106;1254;65108;-90
2023/08/05 21:37:38;;;;;;;12.70;8.80;;;;;;;33.99;91.68;100387.20;108934;1257;59037;-88
2023/08/05 21:40:25;;;;;;;13.70;9.50;;;;;;;33.95;92.09;100386.16;109139;1254;58168;-89
2023/08/05 21:43:14;;;;;;;12.80;8.80;;;;;;;33.81;93.12;100386.98;109007;1254;65129;-89
2023/08/05 21:46:02;;;;;;;11.00;8.60;;;;;;;33.73;93.72;100383.62;109116;1254;60919;-91
2023/08/05 21:48:50;;;;;;;13.90;8.70;;;;;;;33.81;93.50;100385.30;109031;1254;65021;-88
2023/08/05 21:51:37;;;;;;;13.40;9.90;;;;;;;33.78;93.15;100384.48;109090;1254;58218;-89
2023/08/05 21:54:25;;;;;;;11.50;8.70;;;;;;;33.74;93.47;100381.63;109287;1254;58142;-91
2023/08/05 21:57:13;;;;;;;11.70;8.50;;;;;;;33.56;95.00;100381.40;108956;1255;66107;-88
2023/08/05 22:00:03;;;;;;;13.50;8.30;;;;;;;33.56;94.97;100375.33;109223;1254;58971;-89
2023/08/05 22:02:57;;;;;;;13.70;8.90;;;;;;;33.55;94.86;100369.45;109228;1253;65117;-88
2023/08/05 22:05:45;;;;;;;12.70;9.10;;;;;;;33.54;95.21;100362.27;109012;1254;58396;-91
2023/08/05 22:08:33;;;;;;;12.60;8.40;;;;;;;33.46;96.36;100364.29;109213;1255;58469;-90
2023/08/05 22:11:21;;;;;;;12.40;9.80;;;;;;;33.47;96.75;100362.57;109157;1253;66474;-90
2023/08/05 22:14:08;;;;;;;11.50;8.20;;;;;;;33.47;96.81;100353.75;109062;1256;58998;-90
2023/08/05 22:16:56;;;;;;;13.50;9.60;;;;;;;33.52;96.54;100355.28;109158;1254;64153;-90
2023/08/05 22:19:44;;;;;;;11.80;8.60;;;;;;;33.51;96.52;100351.95;109240;1252;58275;-88
2023/08/05 22:22:33;;;;;;;13.30;8.80;;;;;;;33.46;97.02;100346.90;109164;1256;58155;-91
2023/08/05 22:25:21;;;;;;;11.20;8.00;;;;;;;33.36;97.66;100345.42;108988;1254;66057;-90
2023/08/05 22:28:09;;;;;;;10.70;9.00;;;;;;;33.41;97.38;100348.55;109134;1254;59099;-87
2023/08/05 22:30:57;;;;;;;12.90;8.70;;;;;;;33.40;97.27;100343.07;108771;1257;255680;-91
2023/08/05 22:33:45;;;;;;;10.90;8.50;;;;;;;33.43;96.76;100338.55;109125;1254;59111;-89
2023/08/05 22:36:33;;;;;;;11.10;8.50;;;;;;;33.49;96.16;100338.24;109111;1254;58676;-88
2023/08/05 22:39:21;;;;;;;12.50;8.60;;;;;;;33.47;96.39;100341.05;109010;1254;65080;-90
2023/08/05 22:42:08;;;;;;;11.60;8.20;;;;;;;33.52;95.95;100337.77;109084;1254;60014;-87
2023/08/05 22:44:56;;;;;;;13.70;8.50;;;;;;;33.58;95.21;100330.79;109167;1252;64156;-88
2023/08/05 22:47:44;;;;;;;12.50;8.20;;;;;;;33.54;95.75;100328.35;109271;1252;58322;-88
2023/08/05 22:50:38;;;;;;;10.00;8.10;;;;;;;33.60;95.50;100332.02;109189;1253;58811;-89
2023/08/05 22:53:25;;;;;;;12.00;9.10;;;;;;;33.64;94.98;100328.79;109188;1254;65477;-89
2023/08/05 22:56:13;;;;;;;12.00;8.30;;;;;;;33.61;95.22;100323.60;109195;1255;61020;-90
2023/08/05 22:59:01;;;;;;;13.30;8.80;;;;;;;33.63;95.55;100319.66;109187;1253;64178;-91
2023/08/05 23:01:49;;;;;;;13.70;8.50;;;;;;;33.64;95.46;100316.73;109036;1253;61193;-89
2023/08/05 23:04:37;;;;;;;15.60;9.40;;;;;;;33.73;94.81;100319.01;109075;1253;58789;-89
2023/08/05 23:07:25;;;;;;;12.20;8.90;;;;;;;33.88;93.20;100315.16;109134;1254;66513;-89
2023/08/05 23:10:13;;;;;;;11.10;8.90;;;;;;;34.02;91.41;100309.55;109064;1253;61131;-92
2023/08/05 23:13:01;;;;;;;13.50;9.00;;;;;;;34.04;90.55;100307.40;109019;1253;65095;-91
2023/08/05 23:15:48;;;;;;;11.60;7.90;;;;;;;34.04;89.93;100303.89;109207;1253;58769;-92
2023/08/05 23:18:36;;;;;;;13.30;8.70;;;;;;;34.01;89.60;100299.59;109138;1254;58777;-90
2023/08/05 23:21:24;;;;;;;13.50;9.30;;;;;;;34.00;89.42;100301.24;109086;1252;65256;-89
2023/08/05 23:24:12;;;;;;;13.20;8.80;;;;;;;34.05;88.93;100301.68;109032;1254;59843;-91
2023/08/05 23:27:00;;;;;;;14.70;8.40;;;;;;;34.15;87.96;100306.14;108999;1254;65094;-90
2023/08/05 23:29:48;;;;;;;13.40;9.60;;;;;;;34.26;87.16;100310.31;109194;1253;58362;-89
2023/08/05 23:32:36;;;;;;;11.80;9.30;;;;;;;34.21;87.33;100308.98;109211;1256;58454;-91
2023/08/05 23:35:24;;;;;;;12.80;9.20;;;;;;;34.22;87.27;100309.20;109179;1253;65937;-92
2023/08/05 23:38:13;;;;;;;14.30;9.40;;;;;;;34.30;86.53;100309.02;109317;1254;60932;-88
2023/08/05 23:41:01;;;;;;;12.80;9.10;;;;;;;34.35;86.16;100306.19;109237;1253;63933;-92
2023/08/05 23:43:49;;;;;;;16.80;9.60;;;;;;;34.25;86.81;100302.98;109072;1254;59253;-91
2023/08/05 23:46:38;;;;;;;12.20;9.60;;;;;;;34.25;86.92;100299.83;109223;1254;58322;-89
2023/08/05 23:49:26;;;;;;;14.20;9.70;;;;;;;34.24;87.24;100300.56;109200;1253;65372;-91
2023/08/05 23:52:14;;;;;;;12.30;9.50;;;;;;;34.20;88.28;100301.00;109142;1254;61061;-91
2023/08/05 23:55:02;;;;;;;12.70;8.90;;;;;;;34.18;88.37;100294.33;109115;1254;65112;-92
2023/08/05 23:57:51;;;;;;;13.90;9.00;;;;;;;34.19;88.87;100293.99;109121;1254;58437;-92
